Time;durP1;ratioP1;P1;durP2;ratioP2;P2;SDS_P1;SDS_P2;PMS_P1;PMS_P2;Temp;Humidity;BMP_temperature;BMP_pressure;BME280_temperature;BME280_humidity;BME280_pressure;Samples;Min_cycle;Max_cycle;Signal;HPM_P1;HPM_P2
2022/12/23 00:01:24;;;;;;;0.98;0.90;;;;;;;;;;5076661;28;20205;-64
2022/12/23 00:03:52;;;;;;;0.80;0.80;;;;;;;;;;5077570;28;20240;-65
2022/12/23 00:06:21;;;;;;;1.00;1.00;;;;;;;;;;5079973;28;20255;-65
2022/12/23 00:08:48;;;;;;;0.90;0.90;;;;;;;;;;5079926;28;20215;-64
2022/12/23 00:11:17;;;;;;;1.05;0.90;;;;;;;;;;5079278;28;20204;-64
2022/12/23 00:16:32;;;;;;;0.95;0.95;;;;;;;;;;5079780;28;20281;-64
2022/12/23 00:19:00;;;;;;;0.60;0.60;;;;;;;;;;5079824;28;20204;-64
2022/12/23 00:21:28;;;;;;;0.77;0.77;;;;;;;;;;5079396;28;20295;-64
2022/12/23 00:23:56;;;;;;;0.80;0.80;;;;;;;;;;5079454;28;20216;-64
2022/12/23 00:26:24;;;;;;;0.80;0.73;;;;;;;;;;5079331;28;20596;-64
2022/12/23 00:28:52;;;;;;;0.90;0.90;;;;;;;;;;5079137;28;20212;-65
2022/12/23 00:31:20;;;;;;;0.77;0.77;;;;;;;;;;5079552;28;20283;-65
2022/12/23 00:33:50;;;;;;;0.60;0.60;;;;;;;;;;5079755;28;20594;-65
2022/12/23 00:36:19;;;;;;;0.82;0.80;;;;;;;;;;5079177;28;20301;-64
2022/12/23 00:44:13;;;;;;;0.70;0.70;;;;;;;;;;5078779;28;20231;-64
2022/12/23 00:46:41;;;;;;;1.33;0.90;;;;;;;;;;5079032;28;20296;-64
2022/12/23 00:51:57;;;;;;;0.77;0.77;;;;;;;;;;5079206;28;20223;-64
2022/12/23 00:54:25;;;;;;;0.80;0.80;;;;;;;;;;5079082;28;20239;-64
2022/12/23 00:56:53;;;;;;;0.77;0.63;;;;;;;;;;5079225;28;20702;-65
2022/12/23 00:59:20;;;;;;;0.70;0.60;;;;;;;;;;5078830;28;20211;-64
2022/12/23 01:07:20;;;;;;;0.90;0.70;;;;;;;;;;5077371;28;20195;-64
2022/12/23 01:09:48;;;;;;;0.80;0.70;;;;;;;;;;5077951;28;20299;-64
2022/12/23 01:12:16;;;;;;;0.60;0.60;;;;;;;;;;5078019;28;20204;-65
2022/12/23 01:14:44;;;;;;;0.95;0.75;;;;;;;;;;5076786;28;20211;-65
2022/12/23 01:17:11;;;;;;;0.60;0.60;;;;;;;;;;5078381;28;20330;-65
2022/12/23 01:19:41;;;;;;;0.68;0.68;;;;;;;;;;5078680;28;20542;-65
2022/12/23 01:22:08;;;;;;;0.73;0.73;;;;;;;;;;5078237;28;20243;-65
2022/12/23 01:24:36;;;;;;;0.82;0.60;;;;;;;;;;5078038;28;20228;-64
2022/12/23 01:27:04;;;;;;;0.73;0.70;;;;;;;;;;5078117;28;20667;-64
2022/12/23 01:29:32;;;;;;;0.70;0.70;;;;;;;;;;5077629;28;20196;-64
2022/12/23 01:32:00;;;;;;;0.55;0.55;;;;;;;;;;5077410;28;20212;-64
2022/12/23 01:34:28;;;;;;;0.85;0.70;;;;;;;;;;5078116;28;20230;-64
2022/12/23 01:36:57;;;;;;;0.80;0.75;;;;;;;;;;5078049;28;20208;-64
2022/12/23 01:39:25;;;;;;;0.88;0.60;;;;;;;;;;5077296;28;20219;-64
2022/12/23 01:44:51;;;;;;;0.80;0.60;;;;;;;;;;5077617;28;20506;-64
2022/12/23 01:47:22;;;;;;;0.60;0.60;;;;;;;;;;5077755;28;20222;-64
2022/12/23 01:49:51;;;;;;;0.60;0.60;;;;;;;;;;5078189;28;20262;-64
2022/12/23 01:52:20;;;;;;;0.50;0.50;;;;;;;;;;5078135;28;20574;-64
2022/12/23 01:54:48;;;;;;;0.90;0.80;;;;;;;;;;5077484;28;20200;-65
2022/12/23 01:57:15;;;;;;;0.63;0.50;;;;;;;;;;5078029;28;20212;-65
2022/12/23 02:05:16;;;;;;;0.60;0.60;;;;;;;;;;5076921;28;20223;-65
2022/12/23 02:10:37;;;;;;;0.65;0.60;;;;;;;;;;5078197;28;20196;-64
2022/12/23 02:13:09;;;;;;;0.55;0.55;;;;;;;;;;5077118;28;20212;-65
2022/12/23 02:18:35;;;;;;;0.60;0.60;;;;;;;;;;5077274;28;20261;-64
2022/12/23 02:21:11;;;;;;;0.70;0.52;;;;;;;;;;5077399;28;20283;-65
2022/12/23 02:24:08;;;;;;;0.60;0.60;;;;;;;;;;5077560;28;20232;-65
2022/12/23 02:26:54;;;;;;;0.50;0.50;;;;;;;;;;5014749;28;20648;-65
2022/12/23 02:29:39;;;;;;;0.60;0.50;;;;;;;;;;5069871;28;20203;-65
2022/12/23 02:32:11;;;;;;;0.95;0.50;;;;;;;;;;5067816;28;20204;-65
2022/12/23 02:34:40;;;;;;;0.68;0.60;;;;;;;;;;5076989;28;20308;-64
2022/12/23 02:37:13;;;;;;;0.40;0.40;;;;;;;;;;5076679;28;20208;-64
2022/12/23 02:39:43;;;;;;;0.55;0.47;;;;;;;;;;5076824;28;20391;-64
2022/12/23 02:42:16;;;;;;;0.43;0.43;;;;;;;;;;5076939;28;20212;-65
2022/12/23 02:44:46;;;;;;;0.40;0.40;;;;;;;;;;5076703;28;20618;-64
2022/12/23 02:47:19;;;;;;;0.55;0.55;;;;;;;;;;5077183;28;20494;-64
2022/12/23 02:49:49;;;;;;;0.60;0.47;;;;;;;;;;5077286;28;20255;-64
2022/12/23 02:52:19;;;;;;;0.40;0.40;;;;;;;;;;5077192;28;20212;-65
2022/12/23 02:55:01;;;;;;;0.52;0.52;;;;;;;;;;5077087;28;20601;-65
2022/12/23 02:57:30;;;;;;;0.40;0.35;;;;;;;;;;5077006;28;20204;-65
2022/12/23 02:59:59;;;;;;;0.70;0.40;;;;;;;;;;5076835;28;20212;-64
2022/12/23 03:02:29;;;;;;;0.50;0.35;;;;;;;;;;5077445;28;20543;-64
2022/12/23 03:04:56;;;;;;;0.52;0.50;;;;;;;;;;5077166;28;20224;-64
2022/12/23 03:07:26;;;;;;;0.55;0.52;;;;;;;;;;5077103;28;20204;-65
2022/12/23 03:09:58;;;;;;;0.50;0.50;;;;;;;;;;5077328;28;20227;-65
2022/12/23 03:12:31;;;;;;;0.45;0.45;;;;;;;;;;5076845;28;20254;-65
2022/12/23 03:15:05;;;;;;;0.70;0.50;;;;;;;;;;5076706;28;20200;-65
2022/12/23 03:17:41;;;;;;;0.77;0.52;;;;;;;;;;5076980;28;20594;-65
2022/12/23 03:20:14;;;;;;;0.82;0.50;;;;;;;;;;5076884;28;20211;-64
2022/12/23 03:22:46;;;;;;;0.57;0.50;;;;;;;;;;5076660;28;20246;-65
2022/12/23 03:25:17;;;;;;;0.40;0.40;;;;;;;;;;5076078;28;20231;-65
2022/12/23 03:27:48;;;;;;;0.90;0.45;;;;;;;;;;5075518;28;20215;-64
2022/12/23 03:30:16;;;;;;;0.50;0.40;;;;;;;;;;5076194;28;20575;-64
2022/12/23 03:32:47;;;;;;;0.40;0.40;;;;;;;;;;5077013;28;20609;-65
2022/12/23 03:35:17;;;;;;;0.65;0.50;;;;;;;;;;5076424;28;20209;-65
2022/12/23 03:37:45;;;;;;;0.73;0.40;;;;;;;;;;5076533;28;20592;-64
2022/12/23 03:40:16;;;;;;;0.50;0.50;;;;;;;;;;5080643;28;20216;-65
2022/12/23 03:42:45;;;;;;;0.40;0.40;;;;;;;;;;5079000;28;20702;-64
2022/12/23 03:45:15;;;;;;;0.70;0.40;;;;;;;;;;5080674;28;20228;-64
2022/12/23 03:47:45;;;;;;;0.55;0.40;;;;;;;;;;5079487;28;20269;-65
2022/12/23 03:50:15;;;;;;;0.47;0.47;;;;;;;;;;5080080;28;20568;-64
2022/12/23 03:52:44;;;;;;;0.47;0.40;;;;;;;;;;5080429;28;20205;-64
2022/12/23 03:55:16;;;;;;;0.50;0.50;;;;;;;;;;5079933;28;20254;-65
2022/12/23 03:57:45;;;;;;;0.50;0.40;;;;;;;;;;5080334;28;20215;-64
2022/12/23 04:00:13;;;;;;;0.50;0.43;;;;;;;;;;5079824;28;20205;-64
2022/12/23 04:02:46;;;;;;;0.38;0.38;;;;;;;;;;5079999;28;20243;-64
2022/12/23 04:05:24;;;;;;;0.30;0.30;;;;;;;;;;5079798;28;20228;-64
2022/12/23 04:07:53;;;;;;;0.45;0.38;;;;;;;;;;5080082;28;20622;-64
2022/12/23 04:10:22;;;;;;;0.40;0.32;;;;;;;;;;5079852;28;20204;-65
2022/12/23 04:12:50;;;;;;;0.30;0.30;;;;;;;;;;5080142;28;20312;-64
2022/12/23 04:15:20;;;;;;;0.60;0.40;;;;;;;;;;5080228;28;20201;-64
2022/12/23 04:17:49;;;;;;;0.50;0.40;;;;;;;;;;5079533;28;20210;-65
2022/12/23 04:20:17;;;;;;;0.30;0.30;;;;;;;;;;5079317;28;20534;-64
2022/12/23 04:22:46;;;;;;;0.40;0.40;;;;;;;;;;5079572;28;20270;-64
2022/12/23 04:25:15;;;;;;;0.50;0.30;;;;;;;;;;5078922;28;20319;-65
2022/12/23 04:27:43;;;;;;;0.63;0.38;;;;;;;;;;5078897;28;20208;-64
2022/12/23 04:30:12;;;;;;;0.38;0.38;;;;;;;;;;5078406;28;20204;-64
2022/12/23 04:32:40;;;;;;;0.30;0.30;;;;;;;;;;5078929;28;20247;-65
2022/12/23 04:35:08;;;;;;;0.30;0.20;;;;;;;;;;5078471;28;20196;-65
2022/12/23 04:37:36;;;;;;;0.30;0.30;;;;;;;;;;5079034;28;20204;-64
2022/12/23 04:40:06;;;;;;;0.40;0.40;;;;;;;;;;5079596;28;20641;-65
2022/12/23 04:42:34;;;;;;;0.50;0.30;;;;;;;;;;5079136;28;20240;-65
2022/12/23 04:45:02;;;;;;;0.22;0.20;;;;;;;;;;5079280;28;20293;-65
2022/12/23 04:47:30;;;;;;;0.40;0.30;;;;;;;;;;5078884;28;20205;-66
2022/12/23 04:49:58;;;;;;;0.30;0.30;;;;;;;;;;5077623;28;20196;-65
2022/12/23 04:52:25;;;;;;;0.45;0.30;;;;;;;;;;5078305;28;20213;-65
2022/12/23 04:54:53;;;;;;;0.40;0.40;;;;;;;;;;5077867;28;20499;-65
2022/12/23 04:57:22;;;;;;;0.30;0.30;;;;;;;;;;5077863;28;20208;-64
2022/12/23 04:59:50;;;;;;;0.38;0.38;;;;;;;;;;5077777;28;20238;-64
2022/12/23 05:02:17;;;;;;;0.68;0.30;;;;;;;;;;5079134;28;20280;-65
2022/12/23 05:04:45;;;;;;;0.30;0.30;;;;;;;;;;5078578;28;20228;-65
2022/12/23 05:07:12;;;;;;;0.20;0.20;;;;;;;;;;5078395;28;20659;-65
2022/12/23 05:09:40;;;;;;;0.38;0.30;;;;;;;;;;5078242;28;20291;-65
2022/12/23 05:12:07;;;;;;;0.30;0.30;;;;;;;;;;5077889;28;20311;-64
2022/12/23 05:14:36;;;;;;;0.30;0.30;;;;;;;;;;5077677;28;20200;-65
2022/12/23 05:17:04;;;;;;;0.30;0.30;;;;;;;;;;5077476;28;20306;-65
2022/12/23 05:19:31;;;;;;;0.47;0.32;;;;;;;;;;5077881;28;20212;-65
2022/12/23 05:21:58;;;;;;;0.40;0.40;;;;;;;;;;5078670;28;20254;-64
2022/12/23 05:24:26;;;;;;;0.30;0.30;;;;;;;;;;5076636;28;20236;-64
2022/12/23 05:26:53;;;;;;;0.40;0.40;;;;;;;;;;5077455;28;20309;-64
2022/12/23 05:29:20;;;;;;;0.20;0.20;;;;;;;;;;5077802;28;20231;-65
2022/12/23 05:31:49;;;;;;;0.30;0.30;;;;;;;;;;5077899;28;20480;-64
2022/12/23 05:34:17;;;;;;;0.57;0.30;;;;;;;;;;5077246;28;20650;-65
2022/12/23 05:36:44;;;;;;;0.30;0.30;;;;;;;;;;5076927;28;20208;-64
2022/12/23 05:39:12;;;;;;;0.25;0.25;;;;;;;;;;5077178;28;20583;-65
2022/12/23 05:41:39;;;;;;;0.22;0.22;;;;;;;;;;5077282;28;20294;-64
2022/12/23 05:44:06;;;;;;;0.30;0.30;;;;;;;;;;5077721;28;20553;-64
2022/12/23 05:46:34;;;;;;;0.30;0.30;;;;;;;;;;5077231;28;20319;-64
2022/12/23 05:49:03;;;;;;;0.30;0.30;;;;;;;;;;5077686;28;20527;-64
2022/12/23 05:51:30;;;;;;;0.47;0.47;;;;;;;;;;5077618;28;20215;-64
2022/12/23 05:53:57;;;;;;;0.30;0.30;;;;;;;;;;5076251;28;20254;-64
2022/12/23 05:56:25;;;;;;;0.30;0.30;;;;;;;;;;5077002;28;20283;-65
2022/12/23 05:58:53;;;;;;;0.30;0.30;;;;;;;;;;5076783;28;20295;-64
2022/12/23 06:01:20;;;;;;;0.68;0.30;;;;;;;;;;5077087;28;20283;-64
2022/12/23 06:03:47;;;;;;;0.52;0.30;;;;;;;;;;5075425;28;20215;-65
2022/12/23 06:06:16;;;;;;;0.40;0.40;;;;;;;;;;5075987;28;20322;-64
2022/12/23 06:08:44;;;;;;;0.40;0.30;;;;;;;;;;5077002;28;20208;-64
2022/12/23 06:11:12;;;;;;;0.30;0.30;;;;;;;;;;5076800;28;20196;-64
2022/12/23 06:13:39;;;;;;;0.30;0.30;;;;;;;;;;5075759;28;20215;-64
2022/12/23 06:16:07;;;;;;;0.45;0.30;;;;;;;;;;5075607;28;20200;-65
2022/12/23 06:18:35;;;;;;;0.20;0.20;;;;;;;;;;5075898;28;20212;-65
2022/12/23 06:21:02;;;;;;;0.20;0.20;;;;;;;;;;5075297;28;20196;-65
2022/12/23 06:23:31;;;;;;;0.28;0.28;;;;;;;;;;5076103;28;20303;-65
2022/12/23 06:25:59;;;;;;;0.20;0.20;;;;;;;;;;5076713;28;20262;-64
2022/12/23 06:28:28;;;;;;;0.30;0.30;;;;;;;;;;5075945;28;20205;-64
2022/12/23 06:30:55;;;;;;;0.20;0.20;;;;;;;;;;5076278;28;20223;-65
2022/12/23 06:33:23;;;;;;;0.57;0.30;;;;;;;;;;5075704;28;20212;-65
2022/12/23 06:35:51;;;;;;;0.80;0.28;;;;;;;;;;5076311;28;20596;-64
2022/12/23 06:38:18;;;;;;;0.40;0.40;;;;;;;;;;5075453;28;20210;-64
2022/12/23 06:40:47;;;;;;;0.43;0.30;;;;;;;;;;5076214;28;20420;-65
2022/12/23 06:43:15;;;;;;;0.40;0.40;;;;;;;;;;5075983;28;20240;-64
2022/12/23 06:45:46;;;;;;;0.32;0.30;;;;;;;;;;5075758;28;20593;-64
2022/12/23 06:48:14;;;;;;;0.32;0.30;;;;;;;;;;5075703;28;20287;-64
2022/12/23 06:50:41;;;;;;;0.30;0.30;;;;;;;;;;5075887;28;20205;-64
2022/12/23 06:53:09;;;;;;;0.30;0.30;;;;;;;;;;5076472;28;20538;-65
2022/12/23 06:55:36;;;;;;;0.38;0.30;;;;;;;;;;5075546;28;20303;-64
2022/12/23 06:58:05;;;;;;;0.30;0.30;;;;;;;;;;5076282;28;20204;-65
2022/12/23 07:00:32;;;;;;;0.30;0.30;;;;;;;;;;5075644;28;20254;-64
2022/12/23 07:03:00;;;;;;;0.30;0.30;;;;;;;;;;5075533;28;20506;-64
2022/12/23 07:05:27;;;;;;;0.30;0.30;;;;;;;;;;5075641;28;20430;-64
2022/12/23 07:07:55;;;;;;;0.28;0.25;;;;;;;;;;5074544;28;20204;-65
2022/12/23 07:10:23;;;;;;;0.30;0.30;;;;;;;;;;5076002;28;20295;-64
2022/12/23 07:12:50;;;;;;;0.25;0.25;;;;;;;;;;5076386;28;20265;-64
2022/12/23 07:15:19;;;;;;;0.40;0.30;;;;;;;;;;5080221;28;20310;-64
2022/12/23 07:17:46;;;;;;;0.35;0.30;;;;;;;;;;5080646;28;20226;-64
2022/12/23 07:20:14;;;;;;;0.40;0.30;;;;;;;;;;5080277;28;20481;-65
2022/12/23 07:22:41;;;;;;;0.43;0.40;;;;;;;;;;5079621;28;20291;-64
2022/12/23 07:25:09;;;;;;;0.30;0.30;;;;;;;;;;5080174;28;20234;-65
2022/12/23 07:27:37;;;;;;;0.28;0.28;;;;;;;;;;5079964;28;20204;-64
2022/12/23 07:30:04;;;;;;;0.40;0.40;;;;;;;;;;5079350;28;20655;-64
2022/12/23 07:32:33;;;;;;;0.35;0.35;;;;;;;;;;5078716;28;20204;-64
2022/12/23 07:35:01;;;;;;;0.40;0.38;;;;;;;;;;5078813;28;20308;-64
2022/12/23 07:37:29;;;;;;;0.47;0.38;;;;;;;;;;5078602;28;20222;-64
2022/12/23 07:39:56;;;;;;;0.30;0.30;;;;;;;;;;5077621;28;20353;-65
2022/12/23 07:42:24;;;;;;;0.40;0.40;;;;;;;;;;5078516;28;20294;-64
2022/12/23 07:44:51;;;;;;;0.70;0.32;;;;;;;;;;5077952;28;20215;-65
2022/12/23 07:47:18;;;;;;;0.40;0.30;;;;;;;;;;5078315;28;20575;-64
2022/12/23 07:49:47;;;;;;;0.30;0.30;;;;;;;;;;5078302;28;20567;-65
2022/12/23 07:52:15;;;;;;;0.20;0.20;;;;;;;;;;5078326;28;20572;-64
2022/12/23 07:54:42;;;;;;;0.40;0.30;;;;;;;;;;5078571;28;20196;-65
2022/12/23 07:57:09;;;;;;;0.40;0.40;;;;;;;;;;5078672;28;20243;-65
2022/12/23 07:59:37;;;;;;;0.35;0.35;;;;;;;;;;5077878;28;20214;-65
2022/12/23 08:02:04;;;;;;;0.40;0.40;;;;;;;;;;5077567;28;20309;-65
2022/12/23 08:04:32;;;;;;;0.40;0.35;;;;;;;;;;5077450;28;20298;-64
2022/12/23 08:07:00;;;;;;;0.25;0.22;;;;;;;;;;5076915;28;20227;-65
2022/12/23 08:09:28;;;;;;;0.30;0.30;;;;;;;;;;5077271;28;20196;-64
2022/12/23 08:11:55;;;;;;;0.63;0.30;;;;;;;;;;5078355;28;20507;-64
2022/12/23 08:14:23;;;;;;;0.30;0.30;;;;;;;;;;5078572;28;20231;-65
2022/12/23 08:16:50;;;;;;;0.20;0.20;;;;;;;;;;5077171;28;20759;-64
2022/12/23 08:19:18;;;;;;;0.30;0.30;;;;;;;;;;5076514;28;20204;-65
2022/12/23 08:21:45;;;;;;;0.20;0.20;;;;;;;;;;5076780;28;20575;-65
2022/12/23 08:24:14;;;;;;;0.30;0.30;;;;;;;;;;5076897;28;20521;-65
2022/12/23 08:26:42;;;;;;;0.20;0.20;;;;;;;;;;5077090;28;20703;-65
2022/12/23 08:29:09;;;;;;;0.30;0.30;;;;;;;;;;5076862;28;20304;-65
2022/12/23 08:31:36;;;;;;;0.40;0.30;;;;;;;;;;5076330;28;20599;-65
2022/12/23 08:34:04;;;;;;;0.30;0.30;;;;;;;;;;5076804;28;20291;-65
2022/12/23 08:36:32;;;;;;;0.30;0.30;;;;;;;;;;5077494;28;20210;-65
2022/12/23 08:39:01;;;;;;;0.30;0.30;;;;;;;;;;5076711;28;20212;-64
2022/12/23 08:41:30;;;;;;;0.20;0.20;;;;;;;;;;5076227;28;20264;-65
2022/12/23 08:43:58;;;;;;;0.50;0.30;;;;;;;;;;5076114;28;20736;-64
2022/12/23 08:46:26;;;;;;;0.20;0.20;;;;;;;;;;5077208;28;20295;-64
2022/12/23 08:48:53;;;;;;;0.32;0.32;;;;;;;;;;5076187;28;20205;-64
2022/12/23 08:51:21;;;;;;;0.32;0.22;;;;;;;;;;5076640;28;20200;-65
2022/12/23 08:53:49;;;;;;;0.30;0.30;;;;;;;;;;5075913;28;20287;-65
2022/12/23 08:56:18;;;;;;;0.30;0.30;;;;;;;;;;5076326;28;20299;-64
2022/12/23 08:58:48;;;;;;;0.22;0.22;;;;;;;;;;5076633;28;20219;-64
2022/12/23 09:01:17;;;;;;;0.82;0.30;;;;;;;;;;5075420;28;20582;-64
2022/12/23 09:03:44;;;;;;;0.40;0.40;;;;;;;;;;5075189;28;20566;-64
2022/12/23 09:06:14;;;;;;;0.28;0.28;;;;;;;;;;5076075;28;20230;-64
2022/12/23 09:08:41;;;;;;;0.63;0.63;;;;;;;;;;5076275;28;20471;-64
2022/12/23 09:11:09;;;;;;;1.45;0.90;;;;;;;;;;5075898;28;20575;-65
2022/12/23 09:13:37;;;;;;;1.13;0.50;;;;;;;;;;5075791;28;20204;-65
2022/12/23 09:16:06;;;;;;;0.60;0.45;;;;;;;;;;5076525;28;20203;-65
2022/12/23 09:18:34;;;;;;;0.50;0.50;;;;;;;;;;5090843;28;20203;-64
2022/12/23 09:21:02;;;;;;;0.60;0.60;;;;;;;;;;5096378;28;20208;-64
2022/12/23 09:23:30;;;;;;;0.50;0.50;;;;;;;;;;5096544;28;20306;-65
2022/12/23 09:25:58;;;;;;;0.63;0.50;;;;;;;;;;5097024;28;20310;-65
2022/12/23 09:28:26;;;;;;;0.80;0.50;;;;;;;;;;5096993;28;20602;-65
2022/12/23 09:30:53;;;;;;;0.93;0.55;;;;;;;;;;5096982;28;20269;-64
2022/12/23 09:33:22;;;;;;;0.93;0.57;;;;;;;;;;5096812;28;20533;-64
2022/12/23 09:35:50;;;;;;;0.65;0.60;;;;;;;;;;5095623;28;20214;-65
2022/12/23 09:38:17;;;;;;;0.70;0.60;;;;;;;;;;5096018;28;20208;-65
2022/12/23 09:40:45;;;;;;;0.80;0.60;;;;;;;;;;5095671;28;20307;-64
2022/12/23 09:43:17;;;;;;;0.70;0.50;;;;;;;;;;5094144;28;20317;-64
2022/12/23 09:45:59;;;;;;;0.98;0.60;;;;;;;;;;5094204;28;20200;-65
2022/12/23 09:48:29;;;;;;;1.08;0.65;;;;;;;;;;5094545;28;20199;-65
2022/12/23 09:50:57;;;;;;;1.60;0.70;;;;;;;;;;5095062;28;20316;-64
2022/12/23 09:53:27;;;;;;;0.85;0.70;;;;;;;;;;5094562;28;20206;-64
2022/12/23 09:55:57;;;;;;;0.70;0.60;;;;;;;;;;5093132;28;20222;-64
2022/12/23 09:58:29;;;;;;;1.17;0.70;;;;;;;;;;5091745;28;20205;-64
2022/12/23 10:01:11;;;;;;;1.55;0.70;;;;;;;;;;5094822;28;20221;-64
2022/12/23 10:04:00;;;;;;;1.50;0.60;;;;;;;;;;5095146;28;20203;-64
2022/12/23 10:06:28;;;;;;;6.47;5.97;;;;;;;;;;5094609;28;20224;-64
2022/12/23 10:08:58;;;;;;;9.48;8.77;;;;;;;;;;5094506;28;20203;-64
2022/12/23 10:11:27;;;;;;;7.18;6.60;;;;;;;;;;5095812;28;20247;-65
2022/12/23 10:13:56;;;;;;;6.35;5.85;;;;;;;;;;5094864;28;20233;-64
2022/12/23 10:16:26;;;;;;;5.90;5.50;;;;;;;;;;5096027;28;20290;-65
2022/12/23 10:18:57;;;;;;;5.80;5.40;;;;;;;;;;5095510;28;20287;-64
2022/12/23 10:21:30;;;;;;;5.40;5.00;;;;;;;;;;5094081;28;20208;-64
2022/12/23 10:23:57;;;;;;;5.35;4.95;;;;;;;;;;5093252;28;20223;-64
2022/12/23 10:26:25;;;;;;;5.10;4.75;;;;;;;;;;5093547;28;20245;-64
2022/12/23 10:29:00;;;;;;;4.63;4.32;;;;;;;;;;5093350;28;20204;-64
2022/12/23 10:31:33;;;;;;;4.90;4.50;;;;;;;;;;5094834;28;20198;-65
2022/12/23 10:34:06;;;;;;;4.40;4.07;;;;;;;;;;5094992;28;20210;-65
2022/12/23 10:36:37;;;;;;;4.60;4.30;;;;;;;;;;5095032;28;20207;-64
2022/12/23 10:39:10;;;;;;;4.22;3.90;;;;;;;;;;5095040;28;20294;-64
2022/12/23 10:41:41;;;;;;;4.07;3.78;;;;;;;;;;5094601;28;20302;-64
2022/12/23 10:44:24;;;;;;;4.00;3.70;;;;;;;;;;5094432;28;20303;-64
2022/12/23 10:46:59;;;;;;;4.20;3.78;;;;;;;;;;5094193;28;20223;-65
2022/12/23 10:49:33;;;;;;;3.90;3.60;;;;;;;;;;5094179;28;20203;-64
2022/12/23 10:52:04;;;;;;;3.83;3.53;;;;;;;;;;5093917;28;20305;-64
2022/12/23 10:54:35;;;;;;;3.80;3.50;;;;;;;;;;5093820;28;20311;-64
2022/12/23 10:57:03;;;;;;;3.25;3.05;;;;;;;;;;5094171;28;20298;-64
2022/12/23 10:59:33;;;;;;;3.38;3.08;;;;;;;;;;5091691;28;20204;-64
2022/12/23 11:02:05;;;;;;;3.03;2.83;;;;;;;;;;5091776;28;20195;-64
2022/12/23 11:04:35;;;;;;;3.22;3.03;;;;;;;;;;5091940;28;20214;-65
2022/12/23 11:07:03;;;;;;;2.97;2.78;;;;;;;;;;5092904;28;20219;-64
2022/12/23 11:09:38;;;;;;;3.17;2.90;;;;;;;;;;5092581;28;20275;-64
2022/12/23 11:12:07;;;;;;;2.70;2.50;;;;;;;;;;5092668;28;20210;-64
2022/12/23 11:14:38;;;;;;;2.80;2.60;;;;;;;;;;5092536;28;20235;-64
2022/12/23 11:17:06;;;;;;;2.80;2.60;;;;;;;;;;5092501;28;20200;-64
2022/12/23 11:19:35;;;;;;;2.50;2.33;;;;;;;;;;5092428;28;20204;-64
2022/12/23 11:22:03;;;;;;;2.88;2.60;;;;;;;;;;5093550;28;20306;-64
2022/12/23 11:24:33;;;;;;;2.60;2.40;;;;;;;;;;5091294;28;20395;-64
2022/12/23 11:27:02;;;;;;;2.45;2.35;;;;;;;;;;5093470;28;20484;-64
2022/12/23 11:29:31;;;;;;;2.40;2.20;;;;;;;;;;5092391;28;20302;-64
2022/12/23 11:31:59;;;;;;;2.20;2.10;;;;;;;;;;5091673;28;20516;-64
2022/12/23 11:34:27;;;;;;;2.25;2.08;;;;;;;;;;5092447;28;20205;-64
2022/12/23 11:36:57;;;;;;;2.40;2.20;;;;;;;;;;5090736;28;20644;-64
2022/12/23 11:39:27;;;;;;;2.10;2.00;;;;;;;;;;5091197;28;20204;-64
2022/12/23 11:41:56;;;;;;;1.90;1.80;;;;;;;;;;5091665;28;20258;-64
2022/12/23 11:44:24;;;;;;;2.83;2.20;;;;;;;;;;5091688;28;20228;-64
2022/12/23 11:46:52;;;;;;;2.92;1.90;;;;;;;;;;5091480;28;20292;-64
2022/12/23 11:49:20;;;;;;;2.33;1.70;;;;;;;;;;5092003;28;20287;-64
2022/12/23 11:51:49;;;;;;;1.98;1.88;;;;;;;;;;5092545;28;20432;-64
2022/12/23 11:54:19;;;;;;;1.88;1.58;;;;;;;;;;5092887;28;20361;-64
2022/12/23 11:56:49;;;;;;;1.70;1.60;;;;;;;;;;5092088;28;20240;-64
2022/12/23 11:59:24;;;;;;;1.90;1.80;;;;;;;;;;5092926;28;20290;-64
2022/12/23 12:01:52;;;;;;;2.05;1.85;;;;;;;;;;5095583;28;20203;-64
2022/12/23 12:04:21;;;;;;;2.22;1.70;;;;;;;;;;5095868;28;20264;-64
2022/12/23 12:06:50;;;;;;;1.42;1.33;;;;;;;;;;5094381;28;20641;-64
2022/12/23 12:09:19;;;;;;;2.00;1.70;;;;;;;;;;5094742;28;20587;-64
2022/12/23 12:11:49;;;;;;;1.85;1.50;;;;;;;;;;5096264;28;20207;-64
2022/12/23 12:14:20;;;;;;;1.40;1.30;;;;;;;;;;5095622;28;20204;-64
2022/12/23 12:16:52;;;;;;;1.50;1.40;;;;;;;;;;5095843;28;20199;-64
2022/12/23 12:19:23;;;;;;;1.50;1.40;;;;;;;;;;5092917;28;20601;-64
2022/12/23 12:21:51;;;;;;;1.48;1.38;;;;;;;;;;5093397;28;20340;-64
2022/12/23 12:24:23;;;;;;;1.40;1.30;;;;;;;;;;5094409;28;20298;-64
2022/12/23 12:26:52;;;;;;;1.30;1.20;;;;;;;;;;5096069;28;20228;-63
2022/12/23 12:29:21;;;;;;;2.13;1.27;;;;;;;;;;5095980;28;20203;-64
2022/12/23 12:31:50;;;;;;;1.40;1.30;;;;;;;;;;5094529;28;20219;-64
2022/12/23 12:34:25;;;;;;;1.77;1.15;;;;;;;;;;5094739;28;20590;-64
2022/12/23 12:36:56;;;;;;;1.40;1.02;;;;;;;;;;5094438;28;20294;-64
2022/12/23 12:39:28;;;;;;;1.52;1.40;;;;;;;;;;5094326;28;20209;-64
2022/12/23 12:41:58;;;;;;;1.63;1.50;;;;;;;;;;5093049;28;20209;-64
2022/12/23 12:44:28;;;;;;;4.93;4.53;;;;;;;;;;5095123;28;20263;-65
2022/12/23 12:46:58;;;;;;;4.20;3.90;;;;;;;;;;5094585;28;20323;-65
2022/12/23 12:49:29;;;;;;;4.47;4.10;;;;;;;;;;5095044;28;20320;-64
2022/12/23 12:51:59;;;;;;;4.50;4.20;;;;;;;;;;5095203;28;20210;-64
2022/12/23 12:54:30;;;;;;;4.50;4.20;;;;;;;;;;5094224;28;20199;-65
2022/12/23 12:56:58;;;;;;;7.70;7.10;;;;;;;;;;5092511;28;20319;-66
2022/12/23 12:59:26;;;;;;;7.40;6.80;;;;;;;;;;5094622;28;20475;-65
2022/12/23 13:02:00;;;;;;;6.85;6.28;;;;;;;;;;5094950;28;20188;-65
2022/12/23 13:04:48;;;;;;;7.35;6.70;;;;;;;;;;5076029;28;20211;-65
2022/12/23 13:07:20;;;;;;;7.68;6.97;;;;;;;;;;5074661;28;20220;-65
2022/12/23 13:09:53;;;;;;;7.07;6.53;;;;;;;;;;5075420;28;20593;-65
2022/12/23 13:12:23;;;;;;;6.97;6.28;;;;;;;;;;5091567;28;20307;-65
2022/12/23 13:14:54;;;;;;;6.90;6.30;;;;;;;;;;5095223;28;20552;-66
2022/12/23 13:17:25;;;;;;;6.90;6.30;;;;;;;;;;5094758;28;20231;-64
2022/12/23 13:19:56;;;;;;;7.13;6.50;;;;;;;;;;5092730;28;20214;-64
2022/12/23 13:22:26;;;;;;;6.72;6.10;;;;;;;;;;5094841;28;20211;-64
2022/12/23 13:24:58;;;;;;;6.47;5.97;;;;;;;;;;5092962;28;20207;-65
2022/12/23 13:27:28;;;;;;;6.80;6.20;;;;;;;;;;5093302;28;20349;-64
2022/12/23 13:30:03;;;;;;;6.78;6.18;;;;;;;;;;5094074;28;20298;-65
2022/12/23 13:32:51;;;;;;;6.25;5.75;;;;;;;;;;5094115;28;20257;-65
2022/12/23 13:35:26;;;;;;;6.30;5.80;;;;;;;;;;5084885;28;20298;-65
2022/12/23 13:37:57;;;;;;;5.63;5.22;;;;;;;;;;5093268;28;20191;-65
2022/12/23 13:40:34;;;;;;;5.43;5.03;;;;;;;;;;5093370;28;20217;-64
2022/12/23 13:43:05;;;;;;;6.10;5.50;;;;;;;;;;5093243;28;20329;-66
2022/12/23 13:45:36;;;;;;;4.97;4.57;;;;;;;;;;5094696;28;20318;-65
2022/12/23 13:48:10;;;;;;;5.43;5.03;;;;;;;;;;5092234;28;20227;-65
2022/12/23 13:50:39;;;;;;;5.25;4.85;;;;;;;;;;5093120;28;20210;-65
2022/12/23 13:53:11;;;;;;;5.28;4.88;;;;;;;;;;5092216;28;20491;-65
2022/12/23 13:56:04;;;;;;;5.20;4.80;;;;;;;;;;5092678;28;20294;-64
2022/12/23 13:58:32;;;;;;;5.65;5.15;;;;;;;;;;5093786;28;20207;-65
2022/12/23 14:01:19;;;;;;;5.43;4.93;;;;;;;;;;5092942;28;20210;-65
2022/12/23 14:03:48;;;;;;;4.90;4.53;;;;;;;;;;5091739;28;20213;-65
2022/12/23 14:06:42;;;;;;;4.53;4.13;;;;;;;;;;5091781;28;20462;-65
2022/12/23 14:09:13;;;;;;;4.50;4.10;;;;;;;;;;5091987;28;20223;-65
2022/12/23 14:11:43;;;;;;;4.70;4.30;;;;;;;;;;5093730;28;20310;-65
2022/12/23 14:14:19;;;;;;;4.43;4.03;;;;;;;;;;5093599;28;20214;-65
2022/12/23 14:16:50;;;;;;;4.03;3.60;;;;;;;;;;5092919;28;20557;-65
2022/12/23 14:19:32;;;;;;;4.05;3.75;;;;;;;;;;5091854;28;20196;-65
2022/12/23 14:22:04;;;;;;;4.57;3.25;;;;;;;;;;5094592;28;20279;-64
2022/12/23 14:24:52;;;;;;;4.13;3.70;;;;;;;;;;5093864;28;20557;-65
2022/12/23 14:27:44;;;;;;;3.70;3.40;;;;;;;;;;5093359;28;20263;-65
2022/12/23 14:30:13;;;;;;;4.28;3.88;;;;;;;;;;5091753;28;20562;-65
2022/12/23 14:32:46;;;;;;;4.35;3.22;;;;;;;;;;5092259;28;20218;-65
2022/12/23 14:35:19;;;;;;;3.72;3.17;;;;;;;;;;5093169;28;20195;-65
2022/12/23 14:38:01;;;;;;;3.30;3.00;;;;;;;;;;5092550;28;20202;-66
2022/12/23 14:40:51;;;;;;;3.33;3.03;;;;;;;;;;5092316;28;20210;-65
2022/12/23 14:43:51;;;;;;;4.30;2.83;;;;;;;;;;5091016;28;20235;-65
2022/12/23 14:46:46;;;;;;;3.92;2.97;;;;;;;;;;5091743;28;20597;-65
2022/12/23 14:49:21;;;;;;;3.63;2.70;;;;;;;;;;5032928;28;20821;-65
2022/12/23 14:51:49;;;;;;;2.85;2.55;;;;;;;;;;5090457;28;20218;-65
2022/12/23 14:54:18;;;;;;;2.90;2.70;;;;;;;;;;5091450;28;20210;-65
2022/12/23 14:57:04;;;;;;;2.80;2.50;;;;;;;;;;5091737;28;20199;-65
2022/12/23 14:59:38;;;;;;;2.50;2.30;;;;;;;;;;5091188;28;20534;-65
2022/12/23 15:02:15;;;;;;;2.85;2.38;;;;;;;;;;5092010;28;20204;-65
2022/12/23 15:04:46;;;;;;;2.50;2.30;;;;;;;;;;5092721;28;20230;-65
2022/12/23 15:07:15;;;;;;;2.60;2.30;;;;;;;;;;5092265;28;20203;-65
2022/12/23 15:09:48;;;;;;;2.72;2.30;;;;;;;;;;5092145;28;20196;-65
2022/12/23 15:12:17;;;;;;;2.85;2.40;;;;;;;;;;5090469;28;20195;-65
2022/12/23 15:14:46;;;;;;;2.72;2.03;;;;;;;;;;5091761;28;20658;-66
2022/12/23 15:17:18;;;;;;;2.45;2.10;;;;;;;;;;5091829;28;20210;-65
2022/12/23 15:19:47;;;;;;;2.45;2.15;;;;;;;;;;5091683;28;20221;-65
2022/12/23 15:22:15;;;;;;;2.40;2.00;;;;;;;;;;5092173;28;20285;-65
2022/12/23 15:24:44;;;;;;;1.88;1.77;;;;;;;;;;5091345;28;20212;-65
2022/12/23 15:27:12;;;;;;;2.30;2.10;;;;;;;;;;5091719;28;20216;-65
2022/12/23 15:29:43;;;;;;;2.40;2.03;;;;;;;;;;5091628;28;20318;-66
2022/12/23 15:32:11;;;;;;;2.33;1.88;;;;;;;;;;5093021;28;20210;-65